createdAt,value
2017-08-20T00:00:18.774Z,20.51
2017-08-20T00:01:29.062Z,20.42
2017-08-20T00:02:40.997Z,20.42
2017-08-20T00:03:51.292Z,20.46
2017-08-20T00:05:27.487Z,20.42
2017-08-20T00:06:36.867Z,20.46
2017-08-20T00:07:46.855Z,20.49
2017-08-20T00:08:57.157Z,20.41
2017-08-20T00:10:07.440Z,20.57
2017-08-20T00:11:17.412Z,20.6
2017-08-20T00:12:27.703Z,20.54
2017-08-20T00:13:37.987Z,20.56
2017-08-20T00:14:48.266Z,20.6
2017-08-20T00:15:58.559Z,20.6
2017-08-20T00:17:11.650Z,20.58
2017-08-20T00:18:21.631Z,20.61
2017-08-20T00:19:31.917Z,20.66
2017-08-20T00:20:42.249Z,20.66
2017-08-20T00:21:52.549Z,20.66
2017-08-20T00:23:02.527Z,20.66
2017-08-20T00:24:12.824Z,20.67
2017-08-20T00:25:23.096Z,20.67
2017-08-20T00:26:33.382Z,20.63
2017-08-20T00:27:44.863Z,20.74
2017-08-20T00:28:55.183Z,20.66
2017-08-20T00:30:04.849Z,20.71
2017-08-20T00:31:15.144Z,20.68
2017-08-20T00:32:25.436Z,20.68
2017-08-20T00:33:35.099Z,20.72
2017-08-20T00:34:44.837Z,20.71
2017-08-20T00:35:54.813Z,20.68
2017-08-20T00:37:04.818Z,20.68
2017-08-20T00:38:15.119Z,20.71
2017-08-20T00:39:25.395Z,20.71
2017-08-20T00:40:35.416Z,20.71
2017-08-20T00:41:45.391Z,20.64
2017-08-20T00:42:55.664Z,20.68
2017-08-20T00:44:05.646Z,20.67
2017-08-20T00:45:15.631Z,20.64
2017-08-20T00:46:25.921Z,20.72
2017-08-20T00:47:36.193Z,20.63
2017-08-20T00:48:46.484Z,20.6
2017-08-20T00:49:56.770Z,20.66
2017-08-20T00:51:07.036Z,20.6
2017-08-20T00:52:18.404Z,20.58
2017-08-20T00:53:27.775Z,20.48
2017-08-20T00:54:37.748Z,20.46
2017-08-20T00:55:48.021Z,20.61
2017-08-20T00:56:58.328Z,20.48
2017-08-20T00:58:08.672Z,20.57
2017-08-20T00:59:18.658Z,20.6
2017-08-20T01:00:28.951Z,20.56
2017-08-20T01:01:39.232Z,20.54
2017-08-20T01:02:50.612Z,20.57
2017-08-20T01:04:01.240Z,20.51
2017-08-20T01:05:11.523Z,20.49
2017-08-20T01:06:21.503Z,20.54
2017-08-20T01:07:31.817Z,20.58
2017-08-20T01:08:42.107Z,20.56
2017-08-20T01:09:52.452Z,20.48
2017-08-20T01:11:02.744Z,20.51
2017-08-20T01:12:12.724Z,20.46
2017-08-20T01:13:23.004Z,20.46
2017-08-20T01:14:33.316Z,20.46
2017-08-20T01:15:43.029Z,20.54
2017-08-20T01:16:53.312Z,20.44
2017-08-20T01:18:05.333Z,20.57
2017-08-20T01:19:17.130Z,20.46
2017-08-20T01:20:27.422Z,20.57
2017-08-20T01:21:37.153Z,20.56
2017-08-20T01:22:47.474Z,20.51
2017-08-20T01:23:57.807Z,20.44
2017-08-20T01:25:08.101Z,20.49
2017-08-20T01:26:18.410Z,20.48
2017-08-20T01:27:28.701Z,20.49
2017-08-20T01:28:38.976Z,20.49
2017-08-20T01:29:48.951Z,20.46
2017-08-20T01:30:59.228Z,20.42
2017-08-20T01:32:09.191Z,20.44
2017-08-20T01:33:19.520Z,20.44
2017-08-20T01:34:29.477Z,20.48
2017-08-20T01:35:39.137Z,20.46
2017-08-20T01:36:49.397Z,20.42
2017-08-20T01:37:59.703Z,20.49
2017-08-20T01:39:09.986Z,20.41
2017-08-20T01:40:20.258Z,20.49
2017-08-20T01:41:30.529Z,20.44
2017-08-20T01:42:40.816Z,20.44
2017-08-20T01:43:50.809Z,20.51
2017-08-20T01:45:00.785Z,20.49
2017-08-20T01:46:10.779Z,20.42
2017-08-20T01:47:21.066Z,20.41
2017-08-20T01:48:31.345Z,20.4
2017-08-20T01:49:44.180Z,20.42
2017-08-20T01:50:55.651Z,20.49
2017-08-20T01:52:05.614Z,20.48
2017-08-20T01:53:15.602Z,20.49
2017-08-20T01:54:25.879Z,20.46
2017-08-20T01:55:36.190Z,20.42
2017-08-20T01:56:46.464Z,20.44
2017-08-20T01:57:56.736Z,20.44
2017-08-20T01:59:06.700Z,20.46
2017-08-20T02:00:16.986Z,20.48
2017-08-20T02:01:26.945Z,20.44
2017-08-20T02:02:37.276Z,20.46
2017-08-20T02:03:47.560Z,20.48
2017-08-20T02:04:59.144Z,20.54
2017-08-20T02:06:09.414Z,20.49
2017-08-20T02:07:19.378Z,20.51
2017-08-20T02:08:28.430Z,20.54
2017-08-20T02:09:38.710Z,20.48
2017-08-20T02:10:48.977Z,20.49
2017-08-20T02:12:04.107Z,20.58
2017-08-20T02:13:14.058Z,20.41
2017-08-20T02:14:23.707Z,20.48
2017-08-20T02:15:33.685Z,20.54
2017-08-20T02:16:43.981Z,20.51
2017-08-20T02:17:54.250Z,20.57
2017-08-20T02:19:04.477Z,20.61
2017-08-20T02:20:14.760Z,20.66
2017-08-20T02:21:25.030Z,20.74
2017-08-20T02:22:35.308Z,20.66
2017-08-20T02:23:45.577Z,20.68
2017-08-20T02:24:55.838Z,20.66
2017-08-20T02:26:05.863Z,20.71
2017-08-20T02:27:15.852Z,20.74
2017-08-20T02:28:26.125Z,20.68
2017-08-20T02:29:36.395Z,20.67
2017-08-20T02:30:46.668Z,20.72
2017-08-20T02:31:56.945Z,20.68
2017-08-20T02:33:07.226Z,20.71
2017-08-20T02:34:17.526Z,20.67
2017-08-20T02:35:27.808Z,20.76
2017-08-20T02:36:37.823Z,20.74
2017-08-20T02:37:48.155Z,20.76
2017-08-20T02:39:00.462Z,20.78
2017-08-20T02:40:10.743Z,20.78
2017-08-20T02:41:21.019Z,20.79
2017-08-20T02:42:31.300Z,20.82
2017-08-20T02:43:42.182Z,20.76
2017-08-20T02:44:51.848Z,20.76
2017-08-20T02:46:02.121Z,20.72
2017-08-20T02:47:12.424Z,20.72
2017-08-20T02:48:22.703Z,20.66
2017-08-20T02:49:32.728Z,20.71
2017-08-20T02:50:42.687Z,20.63
2017-08-20T02:51:52.653Z,20.61
2017-08-20T02:53:02.626Z,20.64
2017-08-20T02:54:12.912Z,20.61
2017-08-20T02:55:23.942Z,20.6
2017-08-20T02:56:34.209Z,20.53
2017-08-20T02:57:44.496Z,20.51
2017-08-20T02:58:54.463Z,20.54
2017-08-20T03:00:04.743Z,20.57
2017-08-20T03:01:15.020Z,20.41
2017-08-20T03:33:17.183Z,17.73
2017-08-20T03:34:27.474Z,17.69
2017-08-20T03:35:37.426Z,17.74
2017-08-20T03:36:47.692Z,17.6
2017-08-20T03:37:59.270Z,17.76
2017-08-20T03:39:09.238Z,17.84
2017-08-20T03:40:19.200Z,18.02
2017-08-20T03:41:31.639Z,18.14
2017-08-20T03:42:41.302Z,18.24
2017-08-20T03:43:51.592Z,18.36
2017-08-20T03:45:01.871Z,18.54
2017-08-20T03:46:11.834Z,18.57
2017-08-20T03:47:22.119Z,18.78
2017-08-20T03:48:31.774Z,18.91
2017-08-20T03:49:42.063Z,19.1
2017-08-20T03:50:52.386Z,19.15
2017-08-20T03:52:02.669Z,19.28
2017-08-20T03:53:12.948Z,19.3
2017-08-20T03:54:22.930Z,19.37
2017-08-20T03:55:33.221Z,19.47
2017-08-20T03:56:43.543Z,19.57
2017-08-20T03:57:53.506Z,19.67
2017-08-20T03:59:03.507Z,19.78
2017-08-20T04:00:13.785Z,19.75
2017-08-20T04:01:24.050Z,19.86
2017-08-20T04:02:34.327Z,19.98
2017-08-20T04:03:45.145Z,19.93
2017-08-20T04:04:55.421Z,20.05
2017-08-20T04:06:05.694Z,20.02
2017-08-20T04:07:15.979Z,20.07
2017-08-20T04:08:26.254Z,20.02
2017-08-20T04:09:35.932Z,20.08
2017-08-20T04:10:46.213Z,20.1
2017-08-20T04:11:56.486Z,20.1
2017-08-20T04:13:06.783Z,20.12
2017-08-20T04:14:16.841Z,20.25
2017-08-20T04:15:26.817Z,20.25
2017-08-20T04:16:37.119Z,20.29
2017-08-20T04:17:47.387Z,20.34
2017-08-20T04:18:57.672Z,20.38
2017-08-20T04:20:07.638Z,20.4
2017-08-20T04:21:17.955Z,20.37
2017-08-20T04:22:28.981Z,20.46
2017-08-20T04:23:39.265Z,20.42
2017-08-20T04:24:49.547Z,20.44
2017-08-20T04:25:59.545Z,20.48
2017-08-20T04:27:09.811Z,20.46
2017-08-20T04:28:20.097Z,20.51
2017-08-20T04:29:30.073Z,20.48
2017-08-20T04:30:40.347Z,20.57
2017-08-20T04:31:50.631Z,20.49
2017-08-20T04:33:00.916Z,20.6
2017-08-20T04:34:11.219Z,20.54
2017-08-20T04:35:21.500Z,20.54
2017-08-20T04:36:31.784Z,20.58
2017-08-20T04:37:42.108Z,20.57
2017-08-20T04:38:54.252Z,20.58
2017-08-20T04:40:04.220Z,20.57
2017-08-20T04:41:14.205Z,20.6
2017-08-20T04:42:24.481Z,20.67
2017-08-20T04:43:34.798Z,20.67
2017-08-20T04:44:44.462Z,20.67
2017-08-20T04:45:54.784Z,20.75
2017-08-20T04:47:04.758Z,20.72
2017-08-20T04:48:14.751Z,20.71
2017-08-20T04:49:24.794Z,20.71
2017-08-20T04:50:35.091Z,20.67
2017-08-20T04:51:45.072Z,20.72
2017-08-20T04:52:55.046Z,20.66
2017-08-20T04:54:05.328Z,20.64
2017-08-20T04:55:15.650Z,20.56
2017-08-20T04:56:25.914Z,20.51
2017-08-20T04:57:36.179Z,20.53
2017-08-20T04:58:46.479Z,20.54
2017-08-20T04:59:56.756Z,20.56
2017-08-20T05:01:07.075Z,20.54
2017-08-20T05:02:19.507Z,20.48
2017-08-20T05:03:30.878Z,20.46
2017-08-20T05:04:40.850Z,20.41
2017-08-20T05:05:51.128Z,20.46
2017-08-20T05:07:01.394Z,20.54
2017-08-20T05:08:11.350Z,20.48
2017-08-20T05:09:21.613Z,20.56
2017-08-20T05:10:31.908Z,20.53
2017-08-20T05:11:42.191Z,20.57
2017-08-20T05:12:52.212Z,20.61
2017-08-20T05:14:02.490Z,20.64
2017-08-20T05:15:12.470Z,20.66
2017-08-20T05:16:22.777Z,20.72
2017-08-20T05:17:33.059Z,20.74
2017-08-20T05:18:42.769Z,20.86
2017-08-20T05:19:53.049Z,20.74
2017-08-20T05:21:03.319Z,20.85
2017-08-20T05:22:13.589Z,20.9
2017-08-20T05:23:23.859Z,20.88
2017-08-20T05:24:34.176Z,21
2017-08-20T05:25:44.482Z,20.91
2017-08-20T05:26:54.445Z,21.08
2017-08-20T05:28:04.725Z,21.08
2017-08-20T05:29:15.006Z,21.18
2017-08-20T05:30:25.365Z,21.16
2017-08-20T05:31:35.649Z,21.27
2017-08-20T05:32:45.933Z,21.22
2017-08-20T05:33:55.908Z,21.22
2017-08-20T05:35:06.185Z,21.33
2017-08-20T05:36:16.541Z,21.4
2017-08-20T05:37:26.828Z,21.4
2017-08-20T05:38:39.265Z,21.41
2017-08-20T05:39:49.535Z,21.46
2017-08-20T05:40:59.823Z,21.49
2017-08-20T05:42:10.161Z,21.64
2017-08-20T05:43:20.473Z,21.55
2017-08-20T05:44:30.774Z,21.61
2017-08-20T05:45:40.749Z,21.71
2017-08-20T05:46:51.034Z,21.93
2017-08-20T05:48:00.736Z,21.96
2017-08-20T05:49:10.711Z,22.18
2017-08-20T05:50:24.092Z,22.16
2017-08-20T05:51:34.371Z,22.36
2017-08-20T05:52:44.354Z,22.39
2017-08-20T05:53:54.014Z,22.41
2017-08-20T05:55:04.013Z,22.38
2017-08-20T05:56:14.298Z,22.42
2017-08-20T05:57:25.320Z,22.41
2017-08-20T05:58:35.607Z,22.38
2017-08-20T05:59:45.933Z,22.44
2017-08-20T06:00:55.917Z,22.34
2017-08-20T06:02:06.202Z,22.39
2017-08-20T06:03:16.472Z,22.41
2017-08-20T06:04:26.752Z,22.31
2017-08-20T06:05:37.028Z,22.26
2017-08-20T06:06:47.286Z,22.34
2017-08-20T06:07:59.250Z,22.36
2017-08-20T06:09:09.240Z,22.42
2017-08-20T06:10:19.520Z,22.36
2017-08-20T06:11:29.498Z,22.44
2017-08-20T06:12:39.773Z,22.51
2017-08-20T06:13:50.058Z,22.39
2017-08-20T06:15:00.335Z,22.34
2017-08-20T06:16:10.311Z,22.42
2017-08-20T06:17:20.331Z,22.44
2017-08-20T06:18:30.615Z,22.36
2017-08-20T06:19:40.897Z,22.3
2017-08-20T06:20:51.197Z,22.29
2017-08-20T06:22:01.165Z,22.38
2017-08-20T06:23:11.187Z,22.29
2017-08-20T06:24:21.475Z,22.23
2017-08-20T06:25:31.756Z,22.29
2017-08-20T06:26:42.042Z,22.16
2017-08-20T06:27:52.036Z,22.15
2017-08-20T06:29:02.019Z,21.99
2017-08-20T06:30:12.000Z,21.99
2017-08-20T06:31:22.293Z,22.02
2017-08-20T06:32:32.567Z,22.07
2017-08-20T06:33:42.554Z,21.99
2017-08-20T06:34:52.576Z,22.04
2017-08-20T06:36:02.549Z,21.97
2017-08-20T06:37:12.825Z,22.11
2017-08-20T06:38:23.095Z,22.18
2017-08-20T06:39:33.404Z,22.12
2017-08-20T06:40:43.709Z,22.15
2017-08-20T06:41:53.678Z,22.16
2017-08-20T06:43:04.451Z,22.27
2017-08-20T06:44:14.739Z,22.34
2017-08-20T06:45:24.393Z,22.31
2017-08-20T06:46:34.678Z,22.3
2017-08-20T06:47:44.661Z,22.31
2017-08-20T06:48:54.945Z,22.38
2017-08-20T06:50:04.952Z,22.42
2017-08-20T06:51:15.246Z,22.44
2017-08-20T06:52:25.592Z,22.44
2017-08-20T06:53:35.893Z,22.49
2017-08-20T06:54:46.187Z,22.59
2017-08-20T06:55:58.206Z,22.52
2017-08-20T06:57:08.495Z,22.59
2017-08-20T06:58:18.769Z,22.59
2017-08-20T06:59:29.055Z,22.63
2017-08-20T07:00:39.329Z,22.7
2017-08-20T07:01:49.298Z,22.67
2017-08-20T07:02:59.585Z,22.67
2017-08-20T07:04:09.616Z,22.71
2017-08-20T07:05:19.909Z,22.69
2017-08-20T07:06:30.196Z,22.82
2017-08-20T07:07:40.166Z,22.84
2017-08-20T07:08:50.156Z,22.92
2017-08-20T07:10:00.435Z,22.91
2017-08-20T07:11:10.438Z,22.91
2017-08-20T07:12:20.418Z,22.99
2017-08-20T07:13:30.376Z,22.97
2017-08-20T07:14:40.338Z,23.06
2017-08-20T07:15:52.463Z,23.12
2017-08-20T07:17:02.737Z,23.19
2017-08-20T07:18:13.035Z,23.19
2017-08-20T07:19:23.015Z,23.25
2017-08-20T07:20:33.301Z,23.29
2017-08-20T07:21:43.574Z,23.37
2017-08-20T07:22:53.834Z,23.38
2017-08-20T07:24:03.540Z,23.48
2017-08-20T07:25:13.528Z,23.53
2017-08-20T07:26:23.520Z,23.57
2017-08-20T07:27:33.863Z,23.62
2017-08-20T07:28:43.535Z,23.67
2017-08-20T07:29:53.845Z,23.64
2017-08-20T07:31:04.129Z,23.63
2017-08-20T07:32:14.109Z,23.72
2017-08-20T07:33:24.454Z,23.72
2017-08-20T07:34:34.740Z,23.57
2017-08-20T07:35:45.012Z,23.71
2017-08-20T07:36:55.313Z,23.7
2017-08-20T07:38:05.303Z,23.67
2017-08-20T07:39:15.619Z,23.6
2017-08-20T07:40:25.622Z,23.63
2017-08-20T07:41:35.913Z,23.57
2017-08-20T07:42:46.216Z,23.53
2017-08-20T07:43:56.492Z,23.53
2017-08-20T07:45:06.830Z,23.55
2017-08-20T07:46:17.108Z,23.45
2017-08-20T07:47:27.401Z,23.5
2017-08-20T07:48:37.695Z,23.44
2017-08-20T07:49:47.963Z,23.48
2017-08-20T07:50:58.510Z,23.56
2017-08-20T07:52:08.182Z,23.48
2017-08-20T07:53:18.466Z,23.62
2017-08-20T07:54:28.752Z,23.66
2017-08-20T07:55:38.733Z,23.74
2017-08-20T07:56:48.457Z,23.71
2017-08-20T07:57:58.734Z,23.77
2017-08-20T07:59:09.012Z,23.89
2017-08-20T08:00:19.294Z,23.94
2017-08-20T08:01:29.587Z,24.09
2017-08-20T08:02:39.910Z,24.18
2017-08-20T08:03:51.197Z,24.3
2017-08-20T08:05:01.493Z,24.51
2017-08-20T08:06:11.466Z,24.66
2017-08-20T08:07:21.755Z,24.67
2017-08-20T08:08:31.491Z,24.83
2017-08-20T08:09:41.766Z,24.92
2017-08-20T08:10:52.042Z,24.97
2017-08-20T08:12:02.016Z,25.12
2017-08-20T08:13:12.300Z,25.32
2017-08-20T08:14:22.282Z,25.38
2017-08-20T08:15:32.558Z,25.52
2017-08-20T08:16:42.853Z,25.81
2017-08-20T08:17:53.191Z,25.91
2017-08-20T08:19:03.551Z,25.93
2017-08-20T08:20:13.947Z,26.01
2017-08-20T08:21:24.304Z,26.12
2017-08-20T08:22:34.341Z,26.17
2017-08-20T08:23:46.958Z,26.31
2017-08-20T08:24:58.497Z,26.41
2017-08-20T08:26:08.600Z,26.44
2017-08-20T08:27:19.003Z,26.47
2017-08-20T08:28:29.354Z,26.52
2017-08-20T08:29:39.397Z,26.59
2017-08-20T08:30:49.728Z,26.6
2017-08-20T08:31:59.822Z,26.72
2017-08-20T08:33:10.190Z,26.79
2017-08-20T08:34:20.562Z,26.76
2017-08-20T08:35:30.954Z,26.74
2017-08-20T08:36:41.319Z,26.87
2017-08-20T08:37:51.396Z,26.89
2017-08-20T08:39:01.755Z,26.96
2017-08-20T08:40:11.791Z,26.97
2017-08-20T08:41:22.979Z,27.04
2017-08-20T08:42:33.309Z,26.96
2017-08-20T08:43:43.636Z,26.97
2017-08-20T08:44:53.680Z,26.93
2017-08-20T08:46:04.017Z,26.94
2017-08-20T08:47:14.377Z,26.97
2017-08-20T08:48:24.729Z,26.94
2017-08-20T08:49:34.189Z,26.96
2017-08-20T08:50:44.537Z,27.01
2017-08-20T08:51:54.913Z,26.96
2017-08-20T08:53:05.276Z,26.93
2017-08-20T08:54:15.312Z,26.96
2017-08-20T08:55:26.825Z,26.99
2017-08-20T08:56:37.199Z,26.97
2017-08-20T08:57:47.543Z,26.9
2017-08-20T08:58:57.884Z,26.94
2017-08-20T09:00:08.236Z,26.97
2017-08-20T09:01:18.639Z,26.99
2017-08-20T09:02:28.999Z,27.12
2017-08-20T09:03:39.357Z,27.16
2017-08-20T09:04:49.394Z,27.33
2017-08-20T09:06:01.642Z,27.38
2017-08-20T09:07:12.028Z,27.51
2017-08-20T09:08:22.079Z,27.49
2017-08-20T09:09:32.129Z,27.62
2017-08-20T09:10:42.257Z,27.89
2017-08-20T09:11:54.563Z,28.01
2017-08-20T09:13:04.988Z,28.12
2017-08-20T09:14:15.109Z,28.16
2017-08-20T09:15:25.455Z,28.3
2017-08-20T09:16:35.806Z,28.38
2017-08-20T09:17:46.155Z,28.49
2017-08-20T09:18:56.596Z,28.57
2017-08-20T09:20:07.743Z,28.64
2017-08-20T09:21:18.104Z,28.68
2017-08-20T09:22:28.469Z,28.7
2017-08-20T09:23:38.821Z,28.75
2017-08-20T09:24:49.309Z,28.76
2017-08-20T09:25:59.871Z,28.94
2017-08-20T09:27:11.630Z,28.82
2017-08-20T09:28:22.044Z,28.82
2017-08-20T09:29:32.204Z,28.82
2017-08-20T09:30:45.666Z,28.68
2017-08-20T09:31:56.023Z,28.72
2017-08-20T09:33:06.381Z,28.6
2017-08-20T09:34:16.837Z,28.86
2017-08-20T09:35:27.349Z,28.88
2017-08-20T09:36:37.760Z,29.05
2017-08-20T09:37:48.104Z,28.83
2017-08-20T09:38:58.457Z,28.64
2017-08-20T09:40:08.218Z,28.42
2017-08-20T09:41:18.723Z,28.12
2017-08-20T09:42:29.594Z,27.86
2017-08-20T09:43:39.986Z,27.68
2017-08-20T09:44:50.402Z,27.89
2017-08-20T09:46:01.114Z,27.87
2017-08-20T09:47:11.468Z,28.16
2017-08-20T09:48:22.581Z,28.18
2017-08-20T09:49:34.521Z,28.17
2017-08-20T09:50:44.974Z,27.99
2017-08-20T09:51:55.329Z,27.99
2017-08-20T09:53:05.738Z,27.87
2017-08-20T09:54:16.150Z,27.71
2017-08-20T09:55:26.510Z,27.68
2017-08-20T09:56:36.862Z,27.59
2017-08-20T09:57:46.913Z,27.55
2017-08-20T09:58:57.286Z,27.64
2017-08-20T10:00:07.767Z,27.62
2017-08-20T10:01:17.809Z,27.68
2017-08-20T10:02:28.195Z,27.99
2017-08-20T10:03:38.588Z,27.89
2017-08-20T10:04:48.950Z,28.11
2017-08-20T10:05:59.054Z,28.24
2017-08-20T10:07:09.410Z,28.18
2017-08-20T10:08:19.940Z,28.17
2017-08-20T10:09:32.165Z,27.99
2017-08-20T10:10:42.583Z,27.98
2017-08-20T10:11:52.981Z,27.86
2017-08-20T10:13:03.350Z,27.89
2017-08-20T10:14:13.697Z,28.01
2017-08-20T10:15:26.516Z,28.2
2017-08-20T10:16:39.170Z,28.12
2017-08-20T10:17:49.710Z,28.31
2017-08-20T10:18:59.862Z,28.75
2017-08-20T10:20:10.260Z,28.91
2017-08-20T10:21:19.999Z,29.14
2017-08-20T10:22:30.035Z,29.35
2017-08-20T10:23:40.529Z,29.42
2017-08-20T10:24:50.925Z,29.51
2017-08-20T10:26:01.270Z,29.7
2017-08-20T10:27:11.342Z,29.79
2017-08-20T10:28:23.335Z,29.66
2017-08-20T10:29:33.810Z,29.38
2017-08-20T10:30:44.212Z,29.06
2017-08-20T10:31:55.910Z,28.91
2017-08-20T10:33:08.019Z,29.02
2017-08-20T10:34:18.073Z,28.9
2017-08-20T10:35:28.481Z,28.91
2017-08-20T10:36:38.925Z,28.82
2017-08-20T10:37:49.356Z,29.01
2017-08-20T10:38:59.733Z,29.06
2017-08-20T10:40:09.793Z,29.03
2017-08-20T10:41:20.218Z,28.94
2017-08-20T10:42:30.606Z,28.83
2017-08-20T10:43:41.063Z,28.83
2017-08-20T10:44:51.487Z,29.01
2017-08-20T10:46:01.613Z,29.23
2017-08-20T10:47:11.772Z,29.32
2017-08-20T10:48:22.126Z,29.45
2017-08-20T10:49:32.485Z,29.24
2017-08-20T10:50:42.872Z,29.14
2017-08-20T10:51:53.265Z,29.03
2017-08-20T10:53:03.812Z,29.2
2017-08-20T10:54:18.119Z,29.33
2017-08-20T10:55:28.473Z,29.42
2017-08-20T10:56:38.570Z,29.42
2017-08-20T10:57:49.054Z,29.48
2017-08-20T10:58:59.460Z,29.55
2017-08-20T11:00:09.804Z,29.77
2017-08-20T11:01:20.155Z,30.03
2017-08-20T11:02:30.517Z,29.65
2017-08-20T11:03:40.574Z,29.65
2017-08-20T11:04:50.449Z,29.61
2017-08-20T11:06:02.097Z,30
2017-08-20T11:07:12.530Z,30.37
2017-08-20T11:08:23.030Z,30.07
2017-08-20T11:09:33.397Z,30.14
2017-08-20T11:10:49.126Z,30.71
2017-08-20T11:11:59.172Z,30.47
2017-08-20T11:13:13.459Z,30.29
2017-08-20T11:14:23.172Z,30.02
2017-08-20T11:15:37.580Z,29.87
2017-08-20T11:16:47.672Z,29.79
2017-08-20T11:17:57.723Z,29.73
2017-08-20T11:19:08.080Z,29.73
2017-08-20T11:20:18.434Z,30.52
2017-08-20T11:21:28.850Z,31.03
2017-08-20T11:22:39.225Z,31.12
2017-08-20T11:23:49.273Z,31.3
2017-08-20T11:24:59.021Z,31.49
2017-08-20T11:26:09.078Z,31.63
2017-08-20T11:27:18.873Z,31.25
2017-08-20T11:28:28.593Z,30.71
2017-08-20T11:29:38.959Z,30.35
2017-08-20T11:30:50.874Z,30.09
2017-08-20T11:32:01.665Z,29.89
2017-08-20T11:33:12.064Z,30.03
2017-08-20T11:34:37.087Z,29.84
2017-08-20T11:35:49.670Z,29.72
2017-08-20T11:37:03.380Z,30.13
2017-08-20T11:38:15.078Z,29.79
2017-08-20T11:39:26.357Z,29.81
2017-08-20T11:40:36.254Z,30.42
2017-08-20T11:41:46.665Z,31
2017-08-20T11:42:57.031Z,30.69
2017-08-20T11:44:07.449Z,30.71
2017-08-20T11:45:18.305Z,30.63
2017-08-20T11:46:28.704Z,30.34
2017-08-20T11:47:39.154Z,30.18
2017-08-20T11:48:49.530Z,30.49
2017-08-20T11:50:00.031Z,30.34
2017-08-20T11:51:10.120Z,30.11
2017-08-20T11:52:20.519Z,30.18
2017-08-20T11:53:30.839Z,30.6
2017-08-20T11:54:40.913Z,30.18
2017-08-20T11:55:51.598Z,30.03
2017-08-20T11:57:02.090Z,30.22
2017-08-20T11:58:12.614Z,29.63
2017-08-20T11:59:25.236Z,29.55
2017-08-20T12:00:35.365Z,30.07
2017-08-20T12:01:49.887Z,30.42
2017-08-20T12:03:00.502Z,30.67
2017-08-20T12:04:10.943Z,30.77
2017-08-20T12:05:21.580Z,30.7
2017-08-20T12:06:32.508Z,30.44
2017-08-20T12:07:46.646Z,30.35
2017-08-20T12:08:57.063Z,30.66
2017-08-20T12:10:07.441Z,30.85
2017-08-20T12:11:17.647Z,30.62
2017-08-20T12:12:28.065Z,30.32
2017-08-20T12:13:38.323Z,30.75
2017-08-20T12:14:48.447Z,31.03
2017-08-20T12:15:59.041Z,30.7
2017-08-20T12:17:09.675Z,30.75
2017-08-20T12:18:20.108Z,30.73
2017-08-20T12:19:30.427Z,30.22
2017-08-20T12:20:40.540Z,29.87
2017-08-20T12:21:50.962Z,29.45
2017-08-20T12:23:01.035Z,29.18
2017-08-20T12:24:11.457Z,28.88
2017-08-20T12:25:21.962Z,28.63
2017-08-20T12:26:32.350Z,28.31
2017-08-20T12:27:42.521Z,28.36
2017-08-20T12:28:53.350Z,28.57
2017-08-20T12:30:03.390Z,29.06
2017-08-20T12:31:14.088Z,29.48
2017-08-20T12:32:24.449Z,29.65
2017-08-20T12:33:34.921Z,30
2017-08-20T12:34:45.080Z,30.11
2017-08-20T12:35:55.199Z,30.34
2017-08-20T12:37:05.621Z,30.67
2017-08-20T12:38:16.614Z,30.89
2017-08-20T12:39:27.123Z,31.25
2017-08-20T12:40:37.173Z,31.15
2017-08-20T12:41:47.539Z,31.03
2017-08-20T12:42:58.181Z,31.33
2017-08-20T12:44:08.901Z,31.22
2017-08-20T12:45:19.451Z,31.21
2017-08-20T12:46:34.744Z,31.16
2017-08-20T12:47:45.098Z,31.22
2017-08-20T12:48:55.523Z,31.06
2017-08-20T12:50:06.053Z,30.88
2017-08-20T12:51:16.437Z,30.89
2017-08-20T12:52:26.488Z,30.88
2017-08-20T12:53:36.892Z,30.85
2017-08-20T12:54:47.300Z,30.84
2017-08-20T12:55:57.532Z,30.4
2017-08-20T12:57:07.919Z,30
2017-08-20T12:58:18.305Z,29.42
2017-08-20T12:59:34.460Z,29.23
2017-08-20T13:00:53.959Z,28.97
2017-08-20T13:02:04.017Z,28.86
2017-08-20T13:03:14.104Z,28.8
2017-08-20T13:04:24.515Z,29.14
2017-08-20T13:05:34.932Z,29.73
2017-08-20T13:06:45.312Z,30.22
2017-08-20T13:07:55.681Z,30.59
2017-08-20T13:09:06.143Z,30.93
2017-08-20T13:10:16.751Z,30.97
2017-08-20T13:11:26.954Z,30.94
2017-08-20T13:12:37.328Z,31.18
2017-08-20T13:13:47.692Z,31.3
2017-08-20T13:14:57.749Z,31.49
2017-08-20T13:16:08.126Z,31.41
2017-08-20T13:17:18.588Z,31.41
2017-08-20T13:18:29.005Z,31.78
2017-08-20T13:19:39.051Z,32.13
2017-08-20T13:20:49.397Z,32.27
2017-08-20T13:21:59.769Z,32.35
2017-08-20T13:23:09.881Z,32.43
2017-08-20T13:24:19.918Z,32.39
2017-08-20T13:25:32.603Z,32.34
2017-08-20T13:26:42.650Z,32.16
2017-08-20T13:27:52.382Z,32.08
2017-08-20T13:29:02.790Z,31.93
2017-08-20T13:30:12.839Z,31.75
2017-08-20T13:31:23.228Z,31.62
2017-08-20T13:32:33.268Z,30.78
2017-08-20T13:33:43.676Z,30.19
2017-08-20T13:34:54.114Z,30.18
2017-08-20T13:36:04.180Z,29.73
2017-08-20T13:37:14.545Z,29.38
2017-08-20T13:38:24.927Z,29.45
2017-08-20T13:39:35.311Z,29.67
2017-08-20T13:40:45.761Z,29.81
2017-08-20T13:41:56.172Z,29.47
2017-08-20T13:43:06.217Z,29.14
2017-08-20T13:44:16.582Z,28.97
2017-08-20T13:45:28.891Z,29.15
2017-08-20T13:46:38.987Z,29.14
2017-08-20T13:47:49.337Z,28.91
2017-08-20T13:48:59.800Z,28.92
2017-08-20T13:50:10.210Z,29.21
2017-08-20T13:51:20.299Z,29.57
2017-08-20T13:52:30.723Z,29.42
2017-08-20T13:53:41.106Z,29.08
2017-08-20T13:54:51.900Z,28.95
2017-08-20T13:56:02.250Z,28.9
2017-08-20T13:57:12.609Z,28.67
2017-08-20T13:58:22.755Z,28.6
2017-08-20T13:59:33.103Z,28.43
2017-08-20T14:00:43.152Z,28.46
2017-08-20T14:01:53.206Z,28.88
2017-08-20T14:03:03.582Z,28.79
2017-08-20T14:04:17.175Z,29.08
2017-08-20T14:05:27.583Z,28.7
2017-08-20T14:06:37.669Z,28.45
2017-08-20T14:07:48.058Z,28.21
2017-08-20T14:08:58.423Z,27.99
2017-08-20T14:10:08.541Z,27.87
2017-08-20T14:11:18.626Z,27.72
2017-08-20T14:12:28.683Z,27.57
2017-08-20T14:13:39.041Z,27.55
2017-08-20T14:14:49.447Z,27.37
2017-08-20T14:15:59.902Z,27.42
2017-08-20T14:17:10.267Z,27.37
2017-08-20T14:18:20.703Z,27.28
2017-08-20T14:19:31.078Z,27.26
2017-08-20T14:20:41.138Z,27.28
2017-08-20T14:21:52.659Z,27.3
2017-08-20T14:23:02.718Z,27.27
2017-08-20T14:24:13.068Z,27.19
2017-08-20T14:25:23.118Z,27.13
2017-08-20T14:26:33.483Z,27.23
2017-08-20T14:27:44.857Z,27.3
2017-08-20T14:28:55.251Z,27.33
2017-08-20T14:30:05.306Z,27.49
2017-08-20T14:31:15.683Z,27.51
2017-08-20T14:32:25.746Z,27.49
2017-08-20T14:33:36.177Z,27.49
2017-08-20T14:34:45.918Z,27.65
2017-08-20T14:35:56.289Z,27.68
2017-08-20T14:37:06.661Z,27.71
2017-08-20T14:38:17.041Z,27.8
2017-08-20T14:39:27.125Z,27.8
2017-08-20T14:40:37.494Z,27.89
2017-08-20T14:41:47.877Z,27.84
2017-08-20T14:42:58.265Z,27.96
2017-08-20T14:44:08.633Z,28.05
2017-08-20T14:45:19.079Z,28.16
2017-08-20T14:46:29.455Z,28.18
2017-08-20T14:47:42.351Z,28.06
2017-08-20T14:48:52.736Z,27.93
2017-08-20T14:50:02.782Z,27.72
2017-08-20T14:51:12.956Z,27.61
2017-08-20T14:52:22.999Z,27.84
2017-08-20T14:53:33.384Z,28.01
2017-08-20T14:54:43.758Z,28.18
2017-08-20T14:55:54.141Z,28.2
2017-08-20T14:57:04.569Z,28.16
2017-08-20T14:58:14.943Z,27.99
2017-08-20T14:59:25.345Z,27.9
2017-08-20T15:00:35.722Z,27.89
2017-08-20T15:01:45.780Z,27.76
2017-08-20T15:02:55.893Z,27.66
2017-08-20T15:04:05.929Z,27.61
2017-08-20T15:05:16.297Z,27.86
2017-08-20T15:06:27.174Z,27.72
2017-08-20T15:07:37.255Z,27.48
2017-08-20T15:08:47.032Z,27.46
2017-08-20T15:09:58.674Z,27.18
2017-08-20T15:11:09.068Z,27.18
2017-08-20T15:12:19.117Z,27.13
2017-08-20T15:13:29.485Z,27.16
2017-08-20T15:14:39.930Z,27.06
2017-08-20T15:15:50.003Z,27.24
2017-08-20T15:17:00.392Z,27.21
2017-08-20T15:18:10.777Z,27.09
2017-08-20T15:19:20.824Z,26.94
2017-08-20T15:20:31.264Z,26.96
2017-08-20T15:21:41.653Z,26.89
2017-08-20T15:22:52.081Z,26.93
2017-08-20T15:24:02.597Z,26.96
2017-08-20T15:25:12.656Z,26.97
2017-08-20T15:26:23.082Z,26.94
2017-08-20T15:27:33.444Z,26.82
2017-08-20T15:28:43.822Z,26.69
2017-08-20T15:29:54.181Z,26.67
2017-08-20T15:31:04.235Z,26.64
2017-08-20T15:32:14.680Z,26.56
2017-08-20T15:33:25.046Z,26.53
2017-08-20T15:34:35.410Z,26.59
2017-08-20T15:35:45.775Z,26.45
2017-08-20T15:37:15.398Z,26.42
2017-08-20T15:38:25.764Z,26.26
2017-08-20T15:39:36.161Z,26.32
2017-08-20T15:40:45.885Z,26.19